sensor_id;sensor_type;location;lat;lon;timestamp;pressure;altitude;pressure_sealevel;temperature;humidity
18472;BME280;9365;48.258;12.518;2022-07-29T00:00:18;1018.0734240393738;;;22.3;66.48673351395983
18472;BME280;9365;48.258;12.518;2022-07-29T00:01:19;1018.0887989062574;;;22.28;66.33123559253107
18472;BME280;9365;48.258;12.518;2022-07-29T00:02:20;1018.0427926733199;;;22.25;66.2338422980496
18472;BME280;9365;48.258;12.518;2022-07-29T00:03:21;1018.0851507121645;;;22.22;66.12085558404031
18472;BME280;9365;48.258;12.518;2022-07-29T00:04:22;1018.0833229808303;;;22.2;66.03957226732342
18472;BME280;9365;48.258;12.518;2022-07-29T00:05:22;1018.088290140331;;;22.19;65.97552812753608
18472;BME280;9365;48.258;12.518;2022-07-29T00:06:23;1018.0665923548781;;;22.19;65.79997468272622
18472;BME280;9365;48.258;12.518;2022-07-29T00:07:24;1018.099791242128;;;22.17;65.48538491850938
18472;BME280;9365;48.258;12.518;2022-07-29T00:08:25;1018.0952866417052;;;22.17;65.52769445327964
18472;BME280;9365;48.258;12.518;2022-07-29T00:09:26;1018.0926700127317;;;22.15;65.51064142544881
18472;BME280;9365;48.258;12.518;2022-07-29T00:10:27;1018.0409104651416;;;22.13;65.40348058312107
18472;BME280;9365;48.258;12.518;2022-07-29T00:11:28;1018.0984181701211;;;22.14;65.41957045220755
18472;BME280;9365;48.258;12.518;2022-07-29T00:12:29;1018.1026011317705;;;22.14;65.2444938669932
18472;BME280;9365;48.258;12.518;2022-07-29T00:13:30;1018.0192139640384;;;22.13;65.25978906590522
18472;BME280;9365;48.258;12.518;2022-07-29T00:14:31;1018.0657368052514;;;22.11;65.14169657446298
18472;BME280;9365;48.258;12.518;2022-07-29T00:15:32;1017.9899355939067;;;22.11;64.971925434281
18472;BME280;9365;48.258;12.518;2022-07-29T00:16:33;1018.0199969375526;;;22.12;65.01503888776499
18472;BME280;9365;48.258;12.518;2022-07-29T00:17:34;1018.0657368052514;;;22.11;65.03549228161852
18472;BME280;9365;48.258;12.518;2022-07-29T00:18:35;1018.0246895241238;;;22.07;65.14494817631959
18472;BME280;9365;48.258;12.518;2022-07-29T00:19:36;1018.0563133074198;;;22.07;65.16587005983996
18472;BME280;9365;48.258;12.518;2022-07-29T00:20:36;1018.1138159364996;;;22.07;65.01735457806195
18472;BME280;9365;48.258;12.518;2022-07-29T00:21:37;1018.0479473022843;;;22.06;64.94785337863283
18472;BME280;9365;48.258;12.518;2022-07-29T00:22:38;1018.0220688010936;;;22.06;65.20755320933671
18472;BME280;9365;48.258;12.518;2022-07-29T00:23:39;1018.0321326062663;;;22.04;65.22765428086983
18472;BME280;9365;48.258;12.518;2022-07-29T00:24:40;1018.037875430084;;;22.03;65.20031464634447
18472;BME280;9365;48.258;12.518;2022-07-29T00:25:41;1018.0295092764142;;;22.02;65.27432236259105
18472;BME280;9365;48.258;12.518;2022-07-29T00:26:42;1018.1220323875096;;;22.03;65.39159527404995
18472;BME280;9365;48.258;12.518;2022-07-29T00:27:43;1018.1003366714907;;;22.02;65.43905385688288
18472;BME280;9365;48.258;12.518;2022-07-29T00:28:44;1018.094305122861;;;22.0;65.44260094334582
18472;BME280;9365;48.258;12.518;2022-07-29T00:29:45;1018.0543202974889;;;22.0;65.55407371871634
18472;BME280;9365;48.258;12.518;2022-07-29T00:30:46;1018.0692047233601;;;21.98;65.82911148355706
18472;BME280;9365;48.258;12.518;2022-07-29T00:31:47;1018.0723140342886;;;21.95;66.05005631756536
18472;BME280;9365;48.258;12.518;2022-07-29T00:32:48;1018.0788269777527;;;21.93;66.1867149310377
18472;BME280;9365;48.258;12.518;2022-07-29T00:33:48;1018.0933834259736;;;21.91;66.27061309011738
18472;BME280;9365;48.258;12.518;2022-07-29T00:34:50;1018.1699331413079;;;21.9;66.47157194639895
18472;BME280;9365;48.258;12.518;2022-07-29T00:35:51;1018.0389960020884;;;21.88;66.59209711415454
18472;BME280;9365;48.258;12.518;2022-07-29T00:36:52;1018.0671966553707;;;21.87;66.80859213552414
18472;BME280;9365;48.258;12.518;2022-07-29T00:37:53;1018.1102662594103;;;21.84;66.77474942947859
18472;BME280;9365;48.258;12.518;2022-07-29T00:38:54;1018.0802054727676;;;21.83;66.89607160589875
18472;BME280;9365;48.258;12.518;2022-07-29T00:39:55;1018.0997091730906;;;21.8;67.09094231676282
18472;BME280;9365;48.258;12.518;2022-07-29T00:40:56;1018.132084625599;;;21.79;66.93099125328305
18472;BME280;9365;48.258;12.518;2022-07-29T00:41:57;1018.1461794445769;;;21.78;67.15322189219508
18472;BME280;9365;48.258;12.518;2022-07-29T00:42:57;1018.1119341437244;;;21.77;67.25312555867504
18472;BME280;9365;48.258;12.518;2022-07-29T00:43:58;1018.13252238877;;;21.74;67.37850392058161
18472;BME280;9365;48.258;12.518;2022-07-29T00:44:59;1018.0971694869402;;;21.7;67.41783049482473
18472;BME280;9365;48.258;12.518;2022-07-29T00:46:00;1018.1231449780757;;;21.66;67.60060437432904
18472;BME280;9365;48.258;12.518;2022-07-29T00:47:01;1018.1212599749534;;;21.63;67.54056907568662
18472;BME280;9365;48.258;12.518;2022-07-29T00:48:02;1018.1052868123934;;;21.61;67.7248717895971
18472;BME280;9365;48.258;12.518;2022-07-29T00:49:03;1018.110237339628;;;21.61;67.60792046403256
18472;BME280;9365;48.258;12.518;2022-07-29T00:50:05;1018.0809437482583;;;21.59;67.68090988426025
18472;BME280;9365;48.258;12.518;2022-07-29T00:51:06;1018.1026331222388;;;21.6;67.58585510048883
18472;BME280;9365;48.258;12.518;2022-07-29T00:52:08;1018.1091128285494;;;21.58;67.96604493615678
18472;BME280;9365;48.258;12.518;2022-07-29T00:53:09;1018.0741044128908;;;21.57;68.10347278916575
18472;BME280;9365;48.258;12.518;2022-07-29T00:54:12;1018.1042405217657;;;21.53;68.41872206026981
18472;BME280;9365;48.258;12.518;2022-07-29T00:55:14;1018.1407733665101;;;21.52;68.19548945077626
18472;BME280;9365;48.258;12.518;2022-07-29T00:56:15;1018.0932112215324;;;21.51;68.33765489633862
18472;BME280;9365;48.258;12.518;2022-07-29T00:57:16;1018.1556158341456;;;21.51;68.28449813488783
18472;BME280;9365;48.258;12.518;2022-07-29T00:58:17;1018.0856035362515;;;21.5;68.31027968367299
18472;BME280;9365;48.258;12.518;2022-07-29T00:59:18;1018.0738103976441;;;21.48;68.16087956450377
18472;BME280;9365;48.258;12.518;2022-07-29T01:00:20;1018.0795191503312;;;21.47;68.01165833761098
18472;BME280;9365;48.258;12.518;2022-07-29T01:01:22;1018.0570700017903;;;21.47;67.97474755550003
18472;BME280;9365;48.258;12.518;2022-07-29T01:02:22;1018.0277746425069;;;21.45;67.72451286239759
18472;BME280;9365;48.258;12.518;2022-07-29T01:03:23;1018.113059838701;;;21.44;67.8878670997417
18472;BME280;9365;48.258;12.518;2022-07-29T01:04:24;1018.0502795070599;;;21.4;67.53560016653351
18472;BME280;9365;48.258;12.518;2022-07-29T01:05:26;1018.0925035630455;;;21.38;67.49696090327598
18472;BME280;9365;48.258;12.518;2022-07-29T01:06:28;1018.0856490744994;;;21.36;67.49557980782404
18472;BME280;9365;48.258;12.518;2022-07-29T01:07:29;1018.0864069924386;;;21.35;67.29905281491578
18472;BME280;9365;48.258;12.518;2022-07-29T01:08:30;1018.0936219082998;;;21.32;67.1170504682642
18472;BME280;9365;48.258;12.518;2022-07-29T01:09:32;1018.0970506754587;;;21.33;67.07535020542971
18472;BME280;9365;48.258;12.518;2022-07-29T01:10:33;1018.0612934535627;;;21.34;67.04903106233898
18472;BME280;9365;48.258;12.518;2022-07-29T01:11:38;1018.0578653568961;;;21.33;67.33971617913565
18472;BME280;9365;48.258;12.518;2022-07-29T01:12:39;1018.0590575618927;;;21.31;67.51877021644493
18472;BME280;9365;48.258;12.518;2022-07-29T01:13:40;1018.112312662837;;;21.31;67.63529915913125
18472;BME280;9365;48.258;12.518;2022-07-29T01:14:41;1018.1088828413185;;;21.3;67.97886375328004
18472;BME280;9365;48.258;12.518;2022-07-29T01:15:44;1018.0913834497597;;;21.3;67.98928023723626
18472;BME280;9365;48.258;12.518;2022-07-29T01:16:48;1018.1537649615032;;;21.3;67.67133336842149
18472;BME280;9365;48.258;12.518;2022-07-29T01:17:54;1018.1286485816505;;;21.28;67.60673523824468
18472;BME280;9365;48.258;12.518;2022-07-29T01:19:00;1018.0495256746433;;;21.27;67.299017435358
18472;BME280;9365;48.258;12.518;2022-07-29T01:20:09;1018.0662914734285;;;21.24;67.61948801681042
18472;BME280;9365;48.258;12.518;2022-07-29T01:22:22;1018.106981677695;;;21.23;67.64544585194501
18472;BME280;9365;48.258;12.518;2022-07-29T01:23:34;1018.0929271793293;;;21.19;68.52683127702309
18472;BME280;9365;48.258;12.518;2022-07-29T01:24:45;1018.0259488794054;;;21.15;68.4392773465819
18472;BME280;9365;48.258;12.518;2022-07-29T01:25:57;1018.0312069396329;;;21.09;68.53080179379643
18472;BME280;9365;48.258;12.518;2022-07-29T01:26:59;1017.9639055719999;;;21.05;68.37974156458579
18472;BME280;9365;48.258;12.518;2022-07-29T01:28:08;1017.9752753442897;;;21.03;68.20331670598986
18472;BME280;9365;48.258;12.518;2022-07-29T01:29:17;1017.919357038737;;;21.01;68.12798569378626
18472;BME280;9365;48.258;12.518;2022-07-29T01:30:19;1017.9440302197532;;;20.98;68.39609880607742
18472;BME280;9365;48.258;12.518;2022-07-29T01:31:24;1017.918164784623;;;20.98;68.35852351456609
18472;BME280;9365;48.258;12.518;2022-07-29T01:32:26;1017.9573369887117;;;20.98;68.42255649408854
18472;BME280;9365;48.258;12.518;2022-07-29T01:33:28;1017.9782429986491;;;20.95;68.72691411277356
18472;BME280;9365;48.258;12.518;2022-07-29T01:34:38;1017.9250189513052;;;20.95;68.60522787348214
18472;BME280;9365;48.258;12.518;2022-07-29T01:35:41;1017.9341385686383;;;20.95;68.60504836998018
18472;BME280;9365;48.258;12.518;2022-07-29T01:36:45;1017.9223260519741;;;20.93;68.61984303539194
18472;BME280;9365;48.258;12.518;2022-07-29T01:37:50;1017.8865954268164;;;20.93;68.49833671692056
18472;BME280;9365;48.258;12.518;2022-07-29T01:38:54;1017.9516309647805;;;20.95;68.54702854803585
18472;BME280;9365;48.258;12.518;2022-07-29T01:39:58;1017.9432580889593;;;20.94;68.42497882419758
18472;BME280;9365;48.258;12.518;2022-07-29T01:41:01;1017.9565639925163;;;20.94;68.63132246894922
18472;BME280;9365;48.258;12.518;2022-07-29T01:42:06;1017.9819716355324;;;20.91;68.74008137998472
18472;BME280;9365;48.258;12.518;2022-07-29T01:43:10;1017.9679210310521;;;20.92;68.76707334744899
18472;BME280;9365;48.258;12.518;2022-07-29T01:44:13;1017.9575963753679;;;20.89;68.95533582337865
18472;BME280;9365;48.258;12.518;2022-07-29T01:45:16;1017.9359184222168;;;20.88;68.81744383660859
18472;BME280;9365;48.258;12.518;2022-07-29T01:46:20;1017.9093092188594;;;20.88;68.9814198785157
18472;BME280;9365;48.258;12.518;2022-07-29T01:47:23;1017.9058676783311;;;20.87;69.16052434162755
18472;BME280;9365;48.258;12.518;2022-07-29T01:48:27;1017.8625133717087;;;20.86;68.91120592565714
18472;BME280;9365;48.258;12.518;2022-07-29T01:49:34;1017.9157300052381;;;20.86;68.9482307412751
18472;BME280;9365;48.258;12.518;2022-07-29T01:50:37;1017.8822375374343;;;20.84;68.87273144839449
18472;BME280;9365;48.258;12.518;2022-07-29T01:51:43;1017.865169475448;;;20.83;69.05710216396155
18472;BME280;9365;48.258;12.518;2022-07-29T01:52:54;1017.8380946467606;;;20.79;69.21282881315764
18472;BME280;9365;48.258;12.518;2022-07-29T01:53:59;1017.8134443810995;;;20.82;69.0771627358309
18472;BME280;9365;48.258;12.518;2022-07-29T01:55:03;1017.7799540623267;;;20.8;69.20261908323732
18472;BME280;9365;48.258;12.518;2022-07-29T01:56:05;1017.802373138029;;;20.79;68.99619731261858
18472;BME280;9365;48.258;12.518;2022-07-29T01:57:07;1017.7932567783151;;;20.8;69.33481744360033
18472;BME280;9365;48.258;12.518;2022-07-29T01:58:08;1017.7499066232689;;;20.78;69.28120449148702
18472;BME280;9365;48.258;12.518;2022-07-29T01:59:10;1017.7639528199983;;;20.78;69.4339936851332
18472;BME280;9365;48.258;12.518;2022-07-29T02:00:11;1017.7137184586986;;;20.75;69.5216597338903
18472;BME280;9365;48.258;12.518;2022-07-29T02:01:13;1017.7387830570933;;;20.71;69.44522779174912
18472;BME280;9365;48.258;12.518;2022-07-29T02:02:15;1017.6828775760354;;;20.7;69.36463755174927
18472;BME280;9365;48.258;12.518;2022-07-29T02:03:17;1017.6779492925326;;;20.7;69.39672566357564
18472;BME280;9365;48.258;12.518;2022-07-29T02:04:19;1017.669577004855;;;20.7;69.50737266829391
18472;BME280;9365;48.258;12.518;2022-07-29T02:05:21;1017.7079948764201;;;20.71;69.37631599902845
18472;BME280;9365;48.258;12.518;2022-07-29T02:06:23;1017.7060339631956;;;20.69;69.6969324930537
18472;BME280;9365;48.258;12.518;2022-07-29T02:07:24;1017.6599849530543;;;20.66;69.55217082404768
18472;BME280;9365;48.258;12.518;2022-07-29T02:08:28;1017.6348677572419;;;20.64;69.6356287430817
18472;BME280;9365;48.258;12.518;2022-07-29T02:09:30;1017.6447215529035;;;20.63;69.70359532383053
18472;BME280;9365;48.258;12.518;2022-07-29T02:10:33;1017.5880796730689;;;20.62;69.8138376925016
18472;BME280;9365;48.258;12.518;2022-07-29T02:11:34;1017.6021192015264;;;20.61;69.92425875725841
18472;BME280;9365;48.258;12.518;2022-07-29T02:12:36;1017.6245306152973;;;20.61;69.95049478466768
18472;BME280;9365;48.258;12.518;2022-07-29T02:13:38;1017.5671495441785;;;20.61;70.33078002836405
18472;BME280;9365;48.258;12.518;2022-07-29T02:14:40;1017.5770025657903;;;20.6;70.3247370161053
18472;BME280;9365;48.258;12.518;2022-07-29T02:15:43;1017.6245306152973;;;20.61;70.552893621755
18472;BME280;9365;48.258;12.518;2022-07-29T02:16:45;1017.5944871965047;;;20.6;70.84271523791806
18472;BME280;9365;48.258;12.518;2022-07-29T02:17:48;1017.5861149262992;;;20.6;70.72609991281566
18472;BME280;9365;48.258;12.518;2022-07-29T02:18:53;1017.626427691321;;;20.59;70.99494033792658
18472;BME280;9365;48.258;12.518;2022-07-29T02:19:56;1017.5523041913242;;;20.58;71.221116764083
18472;BME280;9365;48.258;12.518;2022-07-29T02:20:58;1017.5481181400605;;;20.57;71.60121990854664
18472;BME280;9365;48.258;12.518;2022-07-29T02:22:00;1017.5754533695306;;;20.57;71.79603961593453
18472;BME280;9365;48.258;12.518;2022-07-29T02:23:02;1017.4986255288977;;;20.54;72.16330143315568
18472;BME280;9365;48.258;12.518;2022-07-29T02:24:04;1017.5008420009909;;;20.51;72.08757792474721
18472;BME280;9365;48.258;12.518;2022-07-29T02:25:05;1017.4932081708092;;;20.5;72.02321821546768
18472;BME280;9365;48.258;12.518;2022-07-29T02:26:07;1017.4540576346739;;;20.49;71.82725452442224
18472;BME280;9365;48.258;12.518;2022-07-29T02:27:09;1017.4904978394958;;;20.48;71.78949938576389
18472;BME280;9365;48.258;12.518;2022-07-29T02:28:10;1017.4650592762;;;20.47;72.0945234766137
18472;BME280;9365;48.258;12.518;2022-07-29T02:29:12;1017.440680180671;;;20.44;72.039930167498
18472;BME280;9365;48.258;12.518;2022-07-29T02:30:15;1017.4258236630712;;;20.41;72.21679915718053
18472;BME280;9365;48.258;12.518;2022-07-29T02:31:17;1017.4218636043454;;;20.36;72.22861783096565
18472;BME280;9365;48.258;12.518;2022-07-29T02:32:19;1017.4286643888767;;;20.33;71.7249689643637
18472;BME280;9365;48.258;12.518;2022-07-29T02:33:22;1017.422491286655;;;20.3;71.69639889249899
18472;BME280;9365;48.258;12.518;2022-07-29T02:34:24;1017.4246886833231;;;20.28;71.7104511548272
18472;BME280;9365;48.258;12.518;2022-07-29T02:35:25;1017.4101374401314;;;20.25;71.83453528794192
18472;BME280;9365;48.258;12.518;2022-07-29T02:36:27;1017.4100115573483;;;20.2;71.93627630518041
18472;BME280;9365;48.258;12.518;2022-07-29T02:37:28;1017.4311331266262;;;20.16;72.17090449940147
18472;BME280;9365;48.258;12.518;2022-07-29T02:38:30;1017.4598944995819;;;20.14;72.0846867843752
18472;BME280;9365;48.258;12.518;2022-07-29T02:39:31;1017.3359682141772;;;20.09;72.24418711184425
18472;BME280;9365;48.258;12.518;2022-07-29T02:40:33;1017.37510425926;;;20.1;72.11291545957405
18472;BME280;9365;48.258;12.518;2022-07-29T02:41:37;1017.3332352019352;;;20.07;72.04233577189066
18472;BME280;9365;48.258;12.518;2022-07-29T02:42:41;1017.3423355268542;;;20.07;71.82585721020303
18472;BME280;9365;48.258;12.518;2022-07-29T02:43:43;1017.2576984168654;;;20.08;71.79460321043992
18472;BME280;9365;48.258;12.518;2022-07-29T02:44:44;1017.2990140480115;;;20.06;71.67207884882558
18472;BME280;9365;48.258;12.518;2022-07-29T02:45:45;1017.2766268080164;;;20.06;71.45597853611
18472;BME280;9365;48.258;12.518;2022-07-29T02:46:49;1017.2535118831074;;;20.07;71.14019949827139
18472;BME280;9365;48.258;12.518;2022-07-29T02:47:50;1017.235310338935;;;20.08;71.08254858154221
18472;BME280;9365;48.258;12.518;2022-07-29T02:48:55;1017.248597646641;;;20.08;70.90841916506267
18472;BME280;9365;48.258;12.518;2022-07-29T02:49:57;1017.263887284635;;;20.1;70.78370442338473
18472;BME280;9365;48.258;12.518;2022-07-29T02:51:02;1017.3135797052927;;;20.09;70.91485878537138
18472;BME280;9365;48.258;12.518;2022-07-29T02:52:06;1017.299740590277;;;20.05;71.17557119158393
18472;BME280;9365;48.258;12.518;2022-07-29T02:53:11;1017.3152050405837;;;20.03;71.20019190903938
18472;BME280;9365;48.258;12.518;2022-07-29T02:54:24;1017.2942704834094;;;20.02;71.48408467665392
18472;BME280;9365;48.258;12.518;2022-07-29T02:55:29;1017.317380465016;;;20.01;71.70484014084607
18472;BME280;9365;48.258;12.518;2022-07-29T02:56:31;1017.2835625116553;;;19.99;71.84564441078429
18472;BME280;9365;48.258;12.518;2022-07-29T02:57:34;1017.2808240850862;;;19.97;72.01828740303496
18472;BME280;9365;48.258;12.518;2022-07-29T02:58:38;1017.3312231130651;;;19.95;72.20145386814029
18472;BME280;9365;48.258;12.518;2022-07-29T02:59:40;1017.3641463356375;;;19.93;72.28421011612745
18472;BME280;9365;48.258;12.518;2022-07-29T03:00:42;1017.3446518968574;;;19.9;72.4190730309518
18472;BME280;9365;48.258;12.518;2022-07-29T03:01:44;1017.348652301113;;;19.86;72.77387131930803
18472;BME280;9365;48.258;12.518;2022-07-29T03:02:46;1017.3067761281145;;;19.83;72.8825114586539
18472;BME280;9365;48.258;12.518;2022-07-29T03:03:50;1017.2991202055827;;;19.82;72.88148465426849
18472;BME280;9365;48.258;12.518;2022-07-29T03:04:52;1017.3047455211245;;;19.81;72.86464644509658
18472;BME280;9365;48.258;12.518;2022-07-29T03:05:54;1017.3404024367513;;;19.8;72.98038862093858
18472;BME280;9365;48.258;12.518;2022-07-29T03:06:58;1017.3376502870892;;;19.79;73.10015559439579
18472;BME280;9365;48.258;12.518;2022-07-29T03:08:00;1017.3250867554706;;;19.78;73.19965951230476
18472;BME280;9365;48.258;12.518;2022-07-29T03:09:02;1017.3432728698751;;;19.77;73.30990355678439
18472;BME280;9365;48.258;12.518;2022-07-29T03:10:03;1017.3356139715914;;;19.76;73.28778725589261
18472;BME280;9365;48.258;12.518;2022-07-29T03:11:05;1017.3810761478144;;;19.75;73.48696822540307
18472;BME280;9365;48.258;12.518;2022-07-29T03:12:06;1017.3821851974603;;;19.73;73.44881822559778
18472;BME280;9365;48.258;12.518;2022-07-29T03:13:07;1017.3787121852329;;;19.72;73.64818190438152
18472;BME280;9365;48.258;12.518;2022-07-29T03:14:08;1017.3661474913126;;;19.71;73.436820238324
18472;BME280;9365;48.258;12.518;2022-07-29T03:15:10;1017.4017980895742;;;19.71;73.31016667896047
18472;BME280;9365;48.258;12.518;2022-07-29T03:16:11;1017.3577710729357;;;19.71;73.39425536318856
18472;BME280;9365;48.258;12.518;2022-07-29T03:17:13;1017.3766679968555;;;19.7;73.36160305093367
18472;BME280;9365;48.258;12.518;2022-07-29T03:18:14;1017.3333566733136;;;19.69;73.35550169313203
18472;BME280;9365;48.258;12.518;2022-07-29T03:19:15;1017.356440540925;;;19.68;73.4652978346492
18472;BME280;9365;48.258;12.518;2022-07-29T03:20:17;1017.2963775832391;;;19.66;73.46889437204763
18472;BME280;9365;48.258;12.518;2022-07-29T03:21:18;1017.346016049658;;;19.65;73.38377593371024
18472;BME280;9365;48.258;12.518;2022-07-29T03:22:19;1017.2761508122977;;;19.64;73.41454757093571
18472;BME280;9365;48.258;12.518;2022-07-29T03:23:20;1017.2810524524017;;;19.63;73.31931384551956
18472;BME280;9365;48.258;12.518;2022-07-29T03:24:25;1017.2279411150296;;;19.63;73.08226108655796
18472;BME280;9365;48.258;12.518;2022-07-29T03:25:26;1017.2887151814939;;;19.64;72.96212470436394
18472;BME280;9365;48.258;12.518;2022-07-29T03:26:27;1017.2992316528465;;;19.63;72.60769706924471
18472;BME280;9365;48.258;12.518;2022-07-29T03:27:28;1017.2677746104433;;;19.63;72.70821038766205
18472;BME280;9365;48.258;12.518;2022-07-29T03:28:29;1017.2677746104433;;;19.63;72.8188494518119
18472;BME280;9365;48.258;12.518;2022-07-29T03:29:30;1017.2472253964994;;;19.61;72.8013867426262
18472;BME280;9365;48.258;12.518;2022-07-29T03:30:31;1017.2346612086216;;;19.6;72.92720391307682
18472;BME280;9365;48.258;12.518;2022-07-29T03:31:32;1017.1864537895422;;;19.6;72.84777300283979
18472;BME280;9365;48.258;12.518;2022-07-29T03:32:33;1017.2486512405117;;;19.59;73.02140595381864
18472;BME280;9365;48.258;12.518;2022-07-29T03:33:34;1017.2158587763785;;;19.57;73.26142456968864
18472;BME280;9365;48.258;12.518;2022-07-29T03:34:35;1017.2703873113204;;;19.55;73.5182406866444
18472;BME280;9365;48.258;12.518;2022-07-29T03:35:36;1017.2156170704686;;;19.52;73.54709849655491
18472;BME280;9365;48.258;12.518;2022-07-29T03:36:37;1017.1636153264479;;;19.5;73.5616221486142
18472;BME280;9365;48.258;12.518;2022-07-29T03:37:38;1017.183209553158;;;19.48;73.67051849989073
18472;BME280;9365;48.258;12.518;2022-07-29T03:38:39;1017.2153660977087;;;19.47;73.78003390690337
18472;BME280;9365;48.258;12.518;2022-07-29T03:39:42;1017.1902357518597;;;19.45;73.63134945920702
18472;BME280;9365;48.258;12.518;2022-07-29T03:40:46;1017.2202635911879;;;19.46;73.97440954403773
18472;BME280;9365;48.258;12.518;2022-07-29T03:41:49;1017.2230974039634;;;19.43;73.74549234735228
18472;BME280;9365;48.258;12.518;2022-07-29T03:42:50;1017.1979661424502;;;19.42;73.817929019737
18472;BME280;9365;48.258;12.518;2022-07-29T03:43:52;1017.2133612447739;;;19.4;73.91077963797565
18472;BME280;9365;48.258;12.518;2022-07-29T03:44:54;1017.1844252094606;;;19.37;73.92969945007111
18472;BME280;9365;48.258;12.518;2022-07-29T03:45:56;1017.1872489633995;;;19.34;74.05873396513493
18472;BME280;9365;48.258;12.518;2022-07-29T03:46:58;1017.2284733995771;;;19.32;74.12061104036431
18472;BME280;9365;48.258;12.518;2022-07-29T03:48:02;1017.1719042416946;;;19.31;74.15133417593148
18472;BME280;9365;48.258;12.518;2022-07-29T03:49:06;1017.2913445121433;;;19.31;74.04081819053188
18472;BME280;9365;48.258;12.518;2022-07-29T03:50:07;1017.2648021943187;;;19.31;73.95135019631627
18472;BME280;9365;48.258;12.518;2022-07-29T03:51:09;1017.2012257873248;;;19.33;74.05809572452601
18472;BME280;9365;48.258;12.518;2022-07-29T03:52:10;1017.2976116075743;;;19.34;74.03263131629399
18472;BME280;9365;48.258;12.518;2022-07-29T03:53:11;1017.2347366584356;;;19.35;74.03874487579151
18472;BME280;9365;48.258;12.518;2022-07-29T03:54:12;1017.2633535469291;;;19.38;73.88296184688097
18472;BME280;9365;48.258;12.518;2022-07-29T03:55:13;1017.2985988823608;;;19.38;73.89919292668188
18472;BME280;9365;48.258;12.518;2022-07-29T03:56:15;1017.2406134105452;;;19.39;73.88908874123388
18472;BME280;9365;48.258;12.518;2022-07-29T03:57:16;1017.3153551818115;;;19.39;73.72632628572255
18472;BME280;9365;48.258;12.518;2022-07-29T03:58:19;1017.310460432436;;;19.4;73.78465406391578
18472;BME280;9365;48.258;12.518;2022-07-29T03:59:20;1017.3572465521183;;;19.42;73.85477924868206
18472;BME280;9365;48.258;12.518;2022-07-29T04:00:21;1017.3551278785691;;;19.44;74.25676495703121
18472;BME280;9365;48.258;12.518;2022-07-29T04:01:23;1017.318787960805;;;19.45;74.33657964828161
18472;BME280;9365;48.258;12.518;2022-07-29T04:02:24;1017.3704704150174;;;19.47;74.11150041625775
18472;BME280;9365;48.258;12.518;2022-07-29T04:03:25;1017.4053976601467;;;19.47;73.89080894880748
18472;BME280;9365;48.258;12.518;2022-07-29T04:04:26;1017.3557807661666;;;19.48;74.0653954410204
18472;BME280;9365;48.258;12.518;2022-07-29T04:05:27;1017.4070792491727;;;19.51;74.10417960121603
18472;BME280;9365;48.258;12.518;2022-07-29T04:06:28;1017.396576251846;;;19.52;73.8897912449123
18472;BME280;9365;48.258;12.518;2022-07-29T04:07:29;1017.4042454274735;;;19.54;73.82239495057821
18472;BME280;9365;48.258;12.518;2022-07-29T04:08:30;1017.4224190587701;;;19.53;73.8430353453441
18472;BME280;9365;48.258;12.518;2022-07-29T04:09:31;1017.4364031400778;;;19.52;73.75288600539098
18472;BME280;9365;48.258;12.518;2022-07-29T04:10:33;1017.3930957568864;;;19.51;73.83102569713996
18472;BME280;9365;48.258;12.518;2022-07-29T04:11:34;1017.3997941449257;;;19.48;74.10772571498953
18472;BME280;9365;48.258;12.518;2022-07-29T04:12:36;1017.3655740463325;;;19.47;73.99610466875639
18472;BME280;9365;48.258;12.518;2022-07-29T04:13:37;1017.3313547283984;;;19.46;73.86342722478014
18472;BME280;9365;48.258;12.518;2022-07-29T04:14:38;1017.4459276532347;;;19.46;73.82173131492186
18472;BME280;9365;48.258;12.518;2022-07-29T04:15:38;1017.4179653052158;;;19.48;73.77561264045954
18472;BME280;9365;48.258;12.518;2022-07-29T04:16:39;1017.4431008349175;;;19.5;73.84006144427816